createdAt,value
2019-04-05T00:01:12.987Z,12.70
2019-04-05T00:03:45.340Z,12.60
2019-04-05T00:06:17.483Z,12.60
2019-04-05T00:08:49.589Z,12.50
2019-04-05T00:11:22.437Z,12.30
2019-04-05T00:13:54.632Z,12.20
2019-04-05T00:16:26.712Z,12.10
2019-04-05T00:18:58.776Z,12.20
2019-04-05T00:21:30.813Z,12.20
2019-04-05T00:24:02.932Z,12.20
2019-04-05T00:26:35.088Z,12.20
2019-04-05T00:29:07.262Z,12.10
2019-04-05T00:31:39.342Z,12.10
2019-04-05T00:34:11.768Z,12.10
2019-04-05T00:36:44.185Z,12.10
2019-04-05T00:39:16.743Z,12.10
2019-04-05T00:41:48.889Z,12.00
2019-04-05T00:44:21.078Z,12.10
2019-04-05T00:46:53.718Z,12.10
2019-04-05T00:49:26.115Z,12.00
2019-04-05T00:51:58.466Z,12.00
2019-04-05T00:54:30.624Z,12.00
2019-04-05T00:57:02.888Z,11.90
2019-04-05T00:59:35.200Z,11.80
2019-04-05T01:02:07.483Z,11.80
2019-04-05T01:04:39.625Z,11.90
2019-04-05T01:07:12.022Z,11.90
2019-04-05T01:09:44.212Z,11.90
2019-04-05T01:12:16.856Z,12.00
2019-04-05T01:14:49.594Z,11.90
2019-04-05T01:17:25.018Z,11.90
2019-04-05T01:20:00.461Z,11.80
2019-04-05T01:22:35.462Z,11.70
2019-04-05T01:25:08.565Z,11.70
2019-04-05T01:27:43.491Z,11.60
2019-04-05T01:30:18.079Z,11.60
2019-04-05T01:32:50.240Z,11.60
2019-04-05T01:35:22.415Z,11.50
2019-04-05T01:37:55.813Z,11.40
2019-04-05T01:40:32.140Z,11.40
2019-04-05T01:43:05.216Z,11.40
2019-04-05T01:45:37.512Z,11.50
2019-04-05T01:48:09.662Z,11.50
2019-04-05T01:50:42.168Z,11.40
2019-04-05T01:53:14.691Z,11.30
2019-04-05T01:55:46.890Z,11.30
2019-04-05T01:58:19.135Z,11.30
2019-04-05T02:00:51.486Z,11.30
2019-04-05T02:03:23.604Z,11.30
2019-04-05T02:05:55.814Z,11.20
2019-04-05T02:08:28.716Z,11.20
2019-04-05T02:11:00.994Z,11.20
2019-04-05T02:13:33.185Z,11.20
2019-04-05T02:16:06.906Z,11.20
2019-04-05T02:18:39.284Z,11.20
2019-04-05T02:21:11.462Z,11.10
2019-04-05T02:23:44.027Z,11.20
2019-04-05T02:26:16.159Z,11.20
2019-04-05T02:28:48.210Z,11.10
2019-04-05T02:31:20.578Z,11.10
2019-04-05T02:33:55.622Z,11.10
2019-04-05T02:36:27.813Z,11.10
2019-04-05T02:39:02.298Z,11.20
2019-04-05T02:41:35.034Z,11.10
2019-04-05T02:44:13.999Z,11.10
2019-04-05T02:46:49.824Z,11.00
2019-04-05T02:49:25.707Z,11.10
2019-04-05T02:52:01.266Z,11.00
2019-04-05T02:54:35.193Z,11.00
2019-04-05T02:57:08.318Z,11.10
2019-04-05T02:59:40.860Z,11.20
2019-04-05T03:02:13.080Z,11.20
2019-04-05T03:04:45.448Z,11.30
2019-04-05T03:07:18.384Z,11.30
2019-04-05T03:09:51.652Z,11.30
2019-04-05T03:12:24.294Z,11.40
2019-04-05T03:14:58.035Z,11.50
2019-04-05T03:17:30.391Z,11.40
2019-04-05T03:20:04.601Z,11.40
2019-04-05T03:22:38.945Z,11.40
2019-04-05T03:25:12.069Z,11.40
2019-04-05T03:27:44.561Z,11.30
2019-04-05T03:30:16.726Z,11.40
2019-04-05T03:32:49.689Z,11.30
2019-04-05T03:35:22.172Z,11.30
2019-04-05T03:37:54.364Z,11.30
2019-04-05T03:40:26.809Z,11.30
2019-04-05T03:42:59.278Z,11.30
2019-04-05T03:45:31.685Z,11.20
2019-04-05T03:48:03.958Z,11.20
2019-04-05T03:50:36.386Z,11.10
2019-04-05T03:53:08.606Z,11.00
2019-04-05T03:55:40.875Z,11.00
2019-04-05T03:58:13.394Z,11.00
2019-04-05T04:00:46.071Z,11.00
2019-04-05T04:03:18.887Z,10.90
2019-04-05T04:05:51.005Z,10.90
2019-04-05T04:08:23.819Z,10.90
2019-04-05T04:10:57.045Z,10.80
2019-04-05T04:13:29.693Z,10.80
2019-04-05T04:16:02.287Z,10.70
2019-04-05T04:18:34.534Z,10.70
2019-04-05T04:21:33.541Z,10.70
2019-04-05T04:24:06.529Z,10.70
2019-04-05T04:26:39.354Z,10.70
2019-04-05T04:29:12.125Z,10.70
2019-04-05T04:31:44.779Z,10.60
2019-04-05T04:34:17.535Z,10.70
2019-04-05T04:36:50.438Z,10.70
2019-04-05T04:39:23.680Z,10.70
2019-04-05T04:41:57.074Z,10.70
2019-04-05T04:44:29.558Z,10.80
2019-04-05T04:47:02.081Z,10.80
2019-04-05T04:49:34.821Z,10.90
2019-04-05T04:52:07.568Z,11.00
2019-04-05T04:54:40.126Z,11.00
2019-04-05T04:57:13.025Z,11.10
2019-04-05T04:59:45.727Z,11.10
2019-04-05T05:02:18.460Z,11.40
2019-04-05T05:04:51.128Z,11.50
2019-04-05T05:07:23.502Z,11.80
2019-04-05T05:09:55.693Z,11.80
2019-04-05T05:12:28.150Z,11.70
2019-04-05T05:15:00.996Z,11.80
2019-04-05T05:17:38.566Z,11.90
2019-04-05T05:20:08.399Z,12.20
2019-04-05T05:22:40.747Z,12.30
2019-04-05T05:25:13.392Z,12.30
2019-04-05T05:27:46.348Z,12.50
2019-04-05T05:30:19.597Z,12.50
2019-04-05T05:32:52.105Z,12.60
2019-04-05T05:35:24.365Z,12.80
2019-04-05T05:37:57.236Z,13.00
2019-04-05T05:40:35.013Z,13.20
2019-04-05T05:43:04.363Z,13.40
2019-04-05T05:45:36.796Z,13.20
2019-04-05T05:48:09.268Z,13.30
2019-04-05T05:50:42.941Z,13.40
2019-04-05T05:53:15.361Z,13.80
2019-04-05T05:55:47.655Z,13.90
2019-04-05T05:58:19.720Z,14.00
2019-04-05T06:00:52.100Z,14.00
2019-04-05T06:03:24.190Z,13.90
2019-04-05T06:08:30.122Z,14.40
2019-04-05T06:11:02.362Z,14.30
2019-04-05T06:13:34.487Z,14.20
2019-04-05T06:16:06.735Z,14.20
2019-04-05T06:18:38.844Z,14.50
2019-04-05T06:21:10.947Z,14.60
2019-04-05T06:23:43.109Z,15.00
2019-04-05T06:26:15.639Z,14.90
2019-04-05T06:28:50.343Z,14.70
2019-04-05T06:31:23.004Z,15.00
2019-04-05T06:33:55.045Z,15.20
2019-04-05T06:36:27.209Z,15.10
2019-04-05T06:38:59.302Z,14.90
2019-04-05T06:41:31.539Z,15.10
2019-04-05T06:44:03.689Z,15.30
2019-04-05T06:46:35.730Z,15.60
2019-04-05T06:49:07.744Z,15.20
2019-04-05T06:51:39.921Z,15.40
2019-04-05T06:54:11.957Z,15.90
2019-04-05T06:56:44.264Z,16.60
2019-04-05T06:59:19.238Z,16.70
2019-04-05T07:01:50.093Z,16.80
2019-04-05T07:04:22.253Z,16.90
2019-04-05T07:06:54.512Z,16.70
2019-04-05T07:09:27.800Z,17.20
2019-04-05T07:11:59.917Z,17.60
2019-04-05T07:14:32.128Z,17.70
2019-04-05T07:17:04.258Z,17.60
2019-04-05T07:19:36.477Z,17.50
2019-04-05T07:22:08.656Z,17.70
2019-04-05T07:24:40.862Z,18.10
2019-04-05T07:27:13.048Z,18.50
2019-04-05T07:29:45.138Z,18.20
2019-04-05T07:32:17.332Z,18.10
2019-04-05T07:34:49.490Z,18.20
2019-04-05T07:37:21.620Z,18.00
2019-04-05T07:39:53.691Z,18.00
2019-04-05T07:42:25.813Z,18.30
2019-04-05T07:44:57.906Z,18.50
2019-04-05T07:47:29.967Z,18.50
2019-04-05T07:50:02.131Z,18.00
2019-04-05T07:52:34.332Z,17.70
2019-04-05T07:55:06.931Z,17.70
2019-04-05T07:57:39.273Z,18.00
2019-04-05T08:00:42.491Z,18.10
2019-04-05T08:03:15.300Z,18.30
2019-04-05T08:05:49.430Z,18.50
2019-04-05T08:08:40.576Z,18.20
2019-04-05T08:11:13.155Z,18.60
2019-04-05T08:13:49.164Z,18.50
2019-04-05T08:16:21.380Z,18.40
2019-04-05T08:18:58.079Z,18.50
2019-04-05T08:21:27.336Z,18.40
2019-04-05T08:23:59.552Z,18.50
2019-04-05T08:26:31.750Z,18.40
2019-04-05T08:29:04.426Z,18.10
2019-04-05T08:31:36.558Z,18.10
2019-04-05T08:34:08.954Z,18.70
2019-04-05T08:36:41.052Z,19.00
2019-04-05T08:39:13.291Z,19.00
2019-04-05T08:41:45.435Z,18.80
2019-04-05T08:44:17.598Z,18.90
2019-04-05T08:46:49.672Z,19.00
2019-04-05T08:49:21.744Z,18.50
2019-04-05T08:51:53.835Z,18.10
2019-04-05T08:54:32.398Z,18.00
2019-04-05T08:56:59.964Z,18.30
2019-04-05T08:59:32.498Z,18.70
2019-04-05T09:02:04.711Z,19.30
2019-04-05T09:04:37.167Z,19.60
2019-04-05T09:07:09.685Z,19.60
2019-04-05T09:09:42.279Z,19.30
2019-04-05T09:12:14.779Z,18.90
2019-04-05T09:14:46.975Z,18.40
2019-04-05T09:17:19.114Z,17.90
2019-04-05T09:19:53.877Z,17.80
2019-04-05T09:22:25.845Z,17.60
2019-04-05T09:24:57.952Z,17.50
2019-04-05T09:27:30.277Z,17.20
2019-04-05T09:30:02.374Z,17.40
2019-04-05T09:32:36.588Z,17.60
2019-04-05T09:35:09.489Z,17.50
2019-04-05T09:37:41.627Z,17.30
2019-04-05T09:40:13.973Z,17.20
2019-04-05T09:42:46.046Z,17.10
2019-04-05T09:45:18.449Z,17.10
2019-04-05T09:47:50.890Z,17.10
2019-04-05T09:50:23.050Z,17.10
2019-04-05T09:52:55.173Z,17.30
2019-04-05T09:55:27.635Z,17.50
2019-04-05T09:57:59.691Z,17.60
2019-04-05T10:00:31.859Z,17.60
2019-04-05T10:03:04.104Z,17.50
2019-04-05T10:05:36.172Z,17.60
2019-04-05T10:08:08.368Z,17.60
2019-04-05T10:10:41.021Z,17.50
2019-04-05T10:13:13.307Z,17.50
2019-04-05T10:15:45.538Z,17.30
2019-04-05T10:18:17.657Z,17.20
2019-04-05T10:20:50.252Z,17.20
2019-04-05T10:23:22.617Z,17.10
2019-04-05T10:25:54.950Z,17.20
2019-04-05T10:28:27.013Z,17.20
2019-04-05T10:30:59.351Z,17.20
2019-04-05T10:33:32.003Z,17.10
2019-04-05T10:36:04.111Z,17.30
2019-04-05T10:38:36.176Z,17.40
2019-04-05T10:41:08.444Z,17.40
2019-04-05T10:43:40.660Z,17.40
2019-04-05T10:46:12.745Z,17.50
2019-04-05T10:48:44.937Z,17.60
2019-04-05T10:51:17.055Z,17.80
2019-04-05T10:53:49.149Z,17.80
2019-04-05T10:56:21.512Z,17.70
2019-04-05T10:58:53.677Z,17.60
2019-04-05T11:01:25.988Z,17.50
2019-04-05T11:03:58.547Z,17.30
2019-04-05T11:06:30.916Z,17.10
2019-04-05T11:09:07.920Z,17.10
2019-04-05T11:11:40.046Z,17.10
2019-04-05T11:14:14.083Z,17.00
2019-04-05T11:16:57.765Z,17.00
2019-04-05T11:19:20.118Z,17.20
2019-04-05T11:21:52.543Z,17.40
2019-04-05T11:24:24.583Z,17.80
2019-04-05T11:26:56.842Z,18.00
2019-04-05T11:29:28.992Z,18.00
2019-04-05T11:32:01.140Z,18.00
2019-04-05T11:34:34.230Z,18.00
2019-04-05T11:37:06.462Z,17.80
2019-04-05T11:39:39.047Z,17.80
2019-04-05T11:42:15.543Z,17.80
2019-04-05T11:44:53.907Z,17.90
2019-04-05T11:47:26.733Z,18.00
2019-04-05T11:50:02.007Z,18.00
2019-04-05T11:52:34.292Z,18.20
2019-04-05T11:55:07.006Z,18.10
2019-04-05T11:57:41.023Z,18.00
2019-04-05T12:00:20.766Z,18.00
2019-04-05T12:03:05.132Z,18.10
2019-04-05T12:05:37.555Z,18.20
2019-04-05T12:08:10.039Z,18.10
2019-04-05T12:10:42.230Z,17.90
2019-04-05T12:13:14.418Z,18.00
2019-04-05T12:15:46.674Z,18.00
2019-04-05T12:18:19.863Z,18.00
2019-04-05T12:20:59.752Z,18.00
2019-04-05T12:23:26.553Z,18.00
2019-04-05T12:25:58.763Z,18.10
2019-04-05T12:28:31.275Z,18.10
2019-04-05T12:31:03.455Z,18.00
2019-04-05T12:33:35.671Z,17.80
2019-04-05T12:36:08.684Z,17.90
2019-04-05T12:38:40.906Z,18.10
2019-04-05T12:41:13.178Z,18.00
2019-04-05T12:43:45.539Z,17.90
2019-04-05T12:46:17.866Z,17.90
2019-04-05T12:48:50.360Z,18.00
2019-04-05T12:51:22.459Z,18.00
2019-04-05T12:53:56.768Z,17.90
2019-04-05T12:56:29.985Z,17.90
2019-04-05T12:59:02.251Z,17.80
2019-04-05T13:01:34.764Z,17.80
2019-04-05T13:04:07.443Z,17.80
2019-04-05T13:06:42.211Z,17.70
2019-04-05T13:09:14.261Z,17.70
2019-04-05T13:11:46.548Z,17.70
2019-04-05T13:14:18.678Z,17.70
2019-04-05T13:16:50.886Z,17.60
2019-04-05T13:19:23.531Z,17.60
2019-04-05T13:21:55.842Z,17.70
2019-04-05T13:24:28.268Z,17.80
2019-04-05T13:27:02.179Z,17.80
2019-04-05T13:29:34.346Z,17.70
2019-04-05T13:32:06.578Z,17.60
2019-04-05T13:34:38.849Z,17.50
2019-04-05T13:37:20.035Z,17.40
2019-04-05T13:39:44.799Z,17.20
2019-04-05T13:42:17.219Z,17.00
2019-04-05T13:44:49.434Z,16.80
2019-04-05T13:47:22.226Z,16.70
2019-04-05T13:49:54.357Z,16.60
2019-04-05T13:52:26.493Z,16.50
2019-04-05T13:54:58.670Z,16.40
2019-04-05T13:57:30.836Z,16.30
2019-04-05T14:00:03.120Z,16.20
2019-04-05T14:02:35.417Z,16.20
2019-04-05T14:05:08.901Z,16.10
2019-04-05T14:07:41.017Z,16.00
2019-04-05T14:10:13.645Z,16.10
2019-04-05T14:12:45.806Z,16.00
2019-04-05T14:15:18.125Z,15.90
2019-04-05T14:17:50.269Z,15.80
2019-04-05T14:20:24.439Z,15.50
2019-04-05T14:22:56.510Z,15.30
2019-04-05T14:25:30.211Z,15.00
2019-04-05T14:28:04.672Z,14.90
2019-04-05T14:30:36.462Z,14.90
2019-04-05T14:33:08.583Z,14.80
2019-04-05T14:35:40.748Z,14.70
2019-04-05T14:38:12.924Z,14.50
2019-04-05T14:40:45.095Z,14.40
2019-04-05T14:43:17.434Z,14.30
2019-04-05T14:45:52.575Z,14.30
2019-04-05T14:48:27.307Z,14.40
2019-04-05T14:50:58.595Z,14.40
2019-04-05T14:53:33.845Z,14.40
2019-04-05T14:56:06.080Z,14.50
2019-04-05T14:58:38.866Z,14.50
2019-04-05T15:01:12.980Z,14.70
2019-04-05T15:03:45.028Z,14.70
2019-04-05T15:06:17.825Z,14.70
2019-04-05T15:08:52.094Z,14.70
2019-04-05T15:11:23.875Z,14.60
2019-04-05T15:13:55.934Z,14.50
2019-04-05T15:16:28.051Z,14.40
2019-04-05T15:19:00.230Z,14.40
2019-04-05T15:21:34.698Z,14.30
2019-04-05T15:24:08.830Z,14.30
2019-04-05T15:26:41.053Z,14.30
2019-04-05T15:29:14.066Z,14.40
2019-04-05T15:31:46.405Z,14.60
2019-04-05T15:34:18.722Z,14.70
2019-04-05T15:36:51.000Z,14.70
2019-04-05T15:39:23.286Z,14.70
2019-04-05T15:41:55.525Z,14.60
2019-04-05T15:44:27.654Z,14.60
2019-04-05T15:46:59.797Z,14.50
2019-04-05T15:49:32.562Z,14.50
2019-04-05T15:52:17.757Z,14.50
2019-04-05T15:54:39.898Z,14.60
2019-04-05T15:57:12.737Z,14.40
2019-04-05T15:59:45.380Z,14.50
2019-04-05T16:02:18.162Z,14.50
2019-04-05T16:04:50.462Z,14.40
2019-04-05T16:07:41.747Z,14.20
2019-04-05T16:10:15.075Z,14.10
2019-04-05T16:12:47.472Z,14.20
2019-04-05T16:15:20.252Z,14.10
2019-04-05T16:17:52.507Z,14.20
2019-04-05T16:20:25.016Z,14.20
2019-04-05T16:22:57.639Z,14.00
2019-04-05T16:25:29.760Z,14.10
2019-04-05T16:28:02.890Z,14.10
2019-04-05T16:30:35.126Z,14.10
2019-04-05T16:33:07.484Z,14.10
2019-04-05T16:35:39.754Z,14.10
2019-04-05T16:38:11.995Z,14.10
2019-04-05T16:40:44.381Z,14.10
2019-04-05T16:43:16.778Z,14.10
2019-04-05T16:45:49.406Z,14.10
2019-04-05T16:48:21.843Z,14.10
2019-04-05T16:50:54.111Z,14.20
2019-04-05T16:53:26.375Z,14.20
2019-04-05T16:55:58.723Z,14.20
2019-04-05T16:58:31.119Z,14.30
2019-04-05T17:01:03.389Z,14.20
2019-04-05T17:03:36.071Z,14.20
2019-04-05T17:06:15.640Z,14.10
2019-04-05T17:08:48.431Z,14.20
2019-04-05T17:11:21.099Z,14.20
2019-04-05T17:13:53.456Z,14.20
2019-04-05T17:16:25.656Z,14.20
2019-04-05T17:19:00.762Z,14.30
2019-04-05T17:21:33.276Z,14.30
2019-04-05T17:24:05.703Z,14.20
2019-04-05T17:26:38.197Z,14.10
2019-04-05T17:29:10.346Z,14.10
2019-04-05T17:31:42.430Z,14.10
2019-04-05T17:34:14.767Z,14.00
2019-04-05T17:36:47.112Z,13.80
2019-04-05T17:39:19.285Z,13.80
2019-04-05T17:41:51.854Z,13.80
2019-04-05T17:44:24.224Z,13.70
2019-04-05T17:46:56.518Z,13.60
2019-04-05T17:49:28.674Z,13.60
2019-04-05T17:52:01.241Z,13.60
2019-04-05T17:54:33.731Z,13.60
2019-04-05T17:57:06.419Z,13.60
2019-04-05T17:59:40.256Z,13.70
2019-04-05T18:02:12.697Z,13.70
2019-04-05T18:04:45.219Z,13.80
2019-04-05T18:07:17.362Z,13.60
2019-04-05T18:09:49.697Z,13.60
2019-04-05T18:12:22.185Z,13.50
2019-04-05T18:14:54.600Z,13.40
2019-04-05T18:17:26.866Z,13.40
2019-04-05T18:19:59.411Z,13.40
2019-04-05T18:22:32.119Z,13.40
2019-04-05T18:25:06.340Z,13.40
2019-04-05T18:27:38.657Z,13.40
2019-04-05T18:30:11.384Z,13.60
2019-04-05T18:32:43.592Z,13.60
2019-04-05T18:35:16.366Z,13.40
2019-04-05T18:37:48.688Z,13.30
2019-04-05T18:40:21.165Z,13.10
2019-04-05T18:42:53.598Z,13.00
2019-04-05T18:45:25.855Z,13.00
2019-04-05T18:47:58.443Z,13.10
2019-04-05T18:50:30.610Z,13.30
2019-04-05T18:53:03.285Z,13.50
2019-04-05T18:55:35.477Z,13.40
2019-04-05T18:58:07.879Z,13.20
2019-04-05T19:00:40.424Z,13.00
2019-04-05T19:03:12.597Z,13.00
2019-04-05T19:05:44.841Z,13.10
2019-04-05T19:08:17.162Z,13.20
2019-04-05T19:10:49.684Z,13.20
2019-04-05T19:13:22.327Z,13.00
2019-04-05T19:15:54.984Z,13.00
2019-04-05T19:18:27.612Z,12.90
2019-04-05T19:21:00.257Z,12.90
2019-04-05T19:23:32.457Z,13.00
2019-04-05T19:26:05.319Z,13.00
2019-04-05T19:28:39.062Z,12.90
2019-04-05T19:49:12.988Z,12.70
2019-04-05T19:51:45.457Z,12.80
2019-04-05T19:54:18.060Z,12.80
2019-04-05T19:56:50.646Z,12.70
2019-04-05T19:59:23.047Z,12.70
2019-04-05T20:01:55.506Z,12.50
2019-04-05T20:04:28.710Z,12.50
2019-04-05T20:07:01.503Z,12.40
2019-04-05T20:09:33.790Z,12.60
2019-04-05T20:12:06.410Z,12.70
2019-04-05T20:14:40.234Z,12.60
2019-04-05T20:17:13.394Z,12.60
2019-04-05T20:19:47.227Z,12.50
2019-04-05T20:22:19.790Z,12.60
2019-04-05T20:24:52.591Z,12.60
2019-04-05T20:27:26.804Z,12.60
2019-04-05T20:29:59.549Z,12.60
2019-04-05T20:32:41.034Z,12.50
2019-04-05T20:35:14.216Z,12.40
2019-04-05T20:37:47.935Z,12.40
2019-04-05T20:40:20.522Z,12.40
2019-04-05T20:42:55.407Z,12.40
2019-04-05T20:45:28.450Z,12.40
2019-04-05T20:48:01.190Z,12.40
2019-04-05T20:50:33.738Z,12.40
2019-04-05T20:53:06.455Z,12.40
2019-04-05T20:55:39.385Z,12.50
2019-04-05T20:58:12.766Z,12.30
2019-04-05T21:00:45.149Z,12.20
2019-04-05T21:03:18.480Z,12.10
2019-04-05T21:05:50.713Z,12.20
2019-04-05T21:08:24.553Z,12.10
2019-04-05T21:10:57.282Z,12.10
2019-04-05T21:13:30.059Z,12.20
2019-04-05T21:16:04.066Z,12.20
2019-04-05T21:18:43.495Z,12.20
2019-04-05T21:21:16.923Z,12.20
2019-04-05T21:23:49.634Z,12.20
2019-04-05T21:26:37.429Z,12.20
2019-04-05T21:29:12.617Z,12.30
2019-04-05T21:31:44.104Z,12.20
2019-04-05T21:34:16.579Z,12.10
2019-04-05T21:36:48.930Z,12.10
2019-04-05T21:39:26.274Z,12.00
2019-04-05T21:41:58.808Z,12.10
2019-04-05T21:44:31.677Z,12.00
2019-04-05T21:47:03.905Z,12.00
2019-04-05T21:49:36.176Z,12.00
2019-04-05T21:52:08.807Z,11.80
2019-04-05T21:54:47.464Z,11.80
2019-04-05T21:57:15.284Z,11.70
2019-04-05T21:59:49.824Z,11.60
2019-04-05T22:02:23.096Z,11.50
2019-04-05T22:04:55.347Z,11.40
2019-04-05T22:07:29.529Z,11.40
2019-04-05T22:10:01.841Z,11.30
2019-04-05T22:12:33.887Z,11.40
2019-04-05T22:15:06.336Z,11.30
2019-04-05T22:17:38.641Z,11.20
2019-04-05T22:20:11.360Z,11.30
2019-04-05T22:22:43.518Z,11.20
2019-04-05T22:25:15.830Z,11.30
2019-04-05T22:27:47.977Z,11.30
2019-04-05T22:30:20.386Z,11.20
2019-04-05T22:32:52.665Z,11.10
2019-04-05T22:35:24.885Z,11.20
2019-04-05T22:37:57.042Z,11.10
2019-04-05T22:40:29.340Z,11.10
2019-04-05T22:43:01.607Z,11.10
2019-04-05T22:45:33.760Z,11.10
2019-04-05T22:48:06.241Z,11.00
2019-04-05T22:50:38.527Z,10.90
2019-04-05T22:53:10.687Z,10.90
2019-04-05T22:55:42.986Z,10.90
2019-04-05T22:58:15.124Z,11.00
2019-04-05T23:00:47.357Z,11.10
2019-04-05T23:03:25.105Z,11.10
2019-04-05T23:05:57.576Z,11.00
2019-04-05T23:08:29.983Z,10.90
2019-04-05T23:11:02.623Z,10.90
2019-04-05T23:13:35.303Z,11.00
2019-04-05T23:16:07.631Z,11.00
2019-04-05T23:18:39.729Z,11.00
2019-04-05T23:21:12.343Z,10.80
2019-04-05T23:23:44.663Z,10.70
2019-04-05T23:26:16.919Z,10.50
2019-04-05T23:28:49.198Z,10.50
2019-04-05T23:31:21.392Z,10.40
2019-04-05T23:33:53.547Z,10.40
2019-04-05T23:36:26.054Z,10.50
2019-04-05T23:38:58.168Z,10.60
2019-04-05T23:41:30.584Z,10.60
2019-04-05T23:44:02.945Z,10.70
2019-04-05T23:46:35.312Z,10.70
2019-04-05T23:49:07.433Z,10.80
2019-04-05T23:51:39.646Z,10.80
2019-04-05T23:54:11.738Z,10.80
2019-04-05T23:56:44.266Z,10.80
2019-04-05T23:59:16.504Z,10.70
